createdAt,value
2018-02-05T00:01:45.147Z,101822.59
2018-02-05T00:04:12.808Z,101820.80
2018-02-05T00:06:40.517Z,101821.58
2018-02-05T00:09:08.186Z,101819.23
2018-02-05T00:11:35.890Z,101830.21
2018-02-05T00:14:03.567Z,101837.34
2018-02-05T00:16:31.266Z,101843.45
2018-02-05T00:18:58.963Z,101843.77
2018-02-05T00:21:26.666Z,101842.18
2018-02-05T00:23:54.427Z,101847.02
2018-02-05T00:26:22.129Z,101844.03
2018-02-05T00:28:49.777Z,101846.67
2018-02-05T00:31:17.559Z,101849.78
2018-02-05T00:33:45.251Z,101856.20
2018-02-05T00:36:13.040Z,101855.28
2018-02-05T00:38:40.697Z,101856.24
2018-02-05T00:41:08.415Z,101859.83
2018-02-05T00:43:36.086Z,101857.44
2018-02-05T00:46:03.820Z,101861.31
2018-02-05T00:48:31.494Z,101857.06
2018-02-05T00:50:59.190Z,101861.89
2018-02-05T00:53:26.861Z,101858.89
2018-02-05T00:55:54.566Z,101851.31
2018-02-05T00:58:22.234Z,101850.83
2018-02-05T01:00:49.946Z,101847.86
2018-02-05T01:03:17.709Z,101841.88
2018-02-05T01:05:45.378Z,101842.64
2018-02-05T01:08:13.084Z,101842.22
2018-02-05T01:10:40.789Z,101844.28
2018-02-05T01:13:08.486Z,101842.97
2018-02-05T01:15:36.151Z,101841.95
2018-02-05T01:18:03.880Z,101846.94
2018-02-05T01:20:31.645Z,101845.26
2018-02-05T01:22:59.354Z,101843.09
2018-02-05T01:25:27.037Z,101845.71
2018-02-05T01:27:54.760Z,101845.20
2018-02-05T01:30:22.450Z,101843.34
2018-02-05T01:32:50.156Z,101845.23
2018-02-05T01:35:17.985Z,101846.97
2018-02-05T01:37:45.682Z,101847.48
2018-02-05T01:40:13.359Z,101839.31
2018-02-05T01:42:41.049Z,101840.57
2018-02-05T01:45:08.786Z,101840.55
2018-02-05T01:47:36.482Z,101841.47
2018-02-05T01:50:04.169Z,101841.64
2018-02-05T01:52:31.898Z,101837.77
2018-02-05T01:54:59.573Z,101840.48
2018-02-05T01:57:27.258Z,101841.31
2018-02-05T01:59:54.983Z,101842.56
2018-02-05T02:02:22.721Z,101847.41
2018-02-05T02:04:50.401Z,101838.06
2018-02-05T02:07:18.077Z,101845.71
2018-02-05T02:09:45.742Z,101843.87
2018-02-05T02:12:13.441Z,101841.42
2018-02-05T02:14:41.112Z,101839.84
2018-02-05T02:17:08.817Z,101839.65
2018-02-05T02:19:36.475Z,101843.27
2018-02-05T02:22:04.169Z,101845.08
2018-02-05T02:24:31.846Z,101845.23
2018-02-05T02:26:59.536Z,101842.67
2018-02-05T02:29:27.203Z,101846.53
2018-02-05T02:31:54.906Z,101845.94
2018-02-05T02:34:22.587Z,101848.08
2018-02-05T02:36:50.415Z,101849.61
2018-02-05T02:39:18.082Z,101849.44
2018-02-05T02:41:45.770Z,101850.22
2018-02-05T02:44:13.435Z,101846.08
2018-02-05T02:46:41.121Z,101846.08
2018-02-05T02:49:08.797Z,101851.08
2018-02-05T02:51:36.493Z,101850.42
2018-02-05T02:54:04.156Z,101854.78
2018-02-05T02:56:31.859Z,101854.61
2018-02-05T02:58:59.551Z,101852.80
2018-02-05T03:01:27.238Z,101857.00
2018-02-05T03:03:54.939Z,101863.00
2018-02-05T03:06:22.629Z,101863.17
2018-02-05T03:08:50.329Z,101863.42
2018-02-05T03:11:18.106Z,101868.69
2018-02-05T03:13:45.821Z,101869.19
2018-02-05T03:16:13.562Z,101866.72
2018-02-05T03:18:41.394Z,101877.28
2018-02-05T03:21:09.062Z,101879.05
2018-02-05T03:23:36.725Z,101874.61
2018-02-05T03:26:04.354Z,101886.56
2018-02-05T03:28:32.175Z,101891.35
2018-02-05T03:30:59.848Z,101882.12
2018-02-05T03:33:27.594Z,101886.64
2018-02-05T03:35:55.307Z,101888.13
2018-02-05T03:38:22.986Z,101883.03
2018-02-05T03:40:50.665Z,101881.30
2018-02-05T03:43:18.438Z,101877.42
2018-02-05T03:45:46.118Z,101879.33
2018-02-05T03:48:13.813Z,101883.05
2018-02-05T03:50:41.493Z,101880.25
2018-02-05T03:53:09.186Z,101880.08
2018-02-05T03:55:36.878Z,101882.46
2018-02-05T03:58:04.587Z,101885.34
2018-02-05T04:00:32.346Z,101880.16
2018-02-05T04:03:00.002Z,101877.61
2018-02-05T04:05:27.762Z,101882.08
2018-02-05T04:07:55.461Z,101888.59
2018-02-05T04:10:23.130Z,101890.05
2018-02-05T04:12:50.858Z,101897.33
2018-02-05T04:15:18.626Z,101894.11
2018-02-05T04:17:46.330Z,101899.88
2018-02-05T04:20:13.998Z,101901.78
2018-02-05T04:22:41.711Z,101903.16
2018-02-05T04:25:09.371Z,101900.60
2018-02-05T04:27:37.075Z,101901.86
2018-02-05T04:30:04.758Z,101905.40
2018-02-05T04:32:32.423Z,101907.06
2018-02-05T04:35:00.110Z,101902.94
2018-02-05T04:37:27.783Z,101904.25
2018-02-05T04:39:55.474Z,101906.89
2018-02-05T04:42:23.219Z,101909.36
2018-02-05T04:44:50.905Z,101908.13
2018-02-05T04:47:18.574Z,101906.47
2018-02-05T04:49:46.274Z,101912.55
2018-02-05T04:52:13.947Z,101914.54
2018-02-05T04:54:41.634Z,101920.78
2018-02-05T04:57:09.293Z,101912.97
2018-02-05T04:59:36.985Z,101915.18
2018-02-05T05:02:04.658Z,101922.69
2018-02-05T05:04:32.397Z,101921.67
2018-02-05T05:07:00.047Z,101928.67
2018-02-05T05:09:27.755Z,101923.15
2018-02-05T05:11:55.484Z,101914.44
2018-02-05T05:14:23.189Z,101925.14
2018-02-05T05:16:50.862Z,101917.57
2018-02-05T05:19:18.551Z,101930.16
2018-02-05T05:21:46.209Z,101922.52
2018-02-05T05:24:13.910Z,101924.17
2018-02-05T05:26:41.578Z,101921.45
2018-02-05T05:29:09.318Z,101919.29
2018-02-05T05:31:37.002Z,101921.76
2018-02-05T05:34:04.697Z,101925.48
2018-02-05T05:36:32.404Z,101928.84
2018-02-05T05:39:00.095Z,101921.29
2018-02-05T05:41:27.774Z,101922.78
2018-02-05T05:43:55.458Z,101925.16
2018-02-05T05:46:23.137Z,101926.81
2018-02-05T05:48:50.841Z,101933.62
2018-02-05T05:51:18.546Z,101932.55
2018-02-05T05:53:46.326Z,101931.66
2018-02-05T05:56:14.009Z,101936.17
2018-02-05T05:58:41.838Z,101936.00
2018-02-05T06:01:09.506Z,101941.86
2018-02-05T06:03:37.205Z,101944.58
2018-02-05T06:06:04.866Z,101955.45
2018-02-05T06:08:32.646Z,101950.66
2018-02-05T06:11:00.303Z,101948.11
2018-02-05T06:13:28.001Z,101945.55
2018-02-05T06:15:55.686Z,101960.13
2018-02-05T06:18:23.373Z,101951.97
2018-02-05T06:20:51.075Z,101961.14
2018-02-05T06:23:18.841Z,101957.02
2018-02-05T06:25:46.510Z,101963.69
2018-02-05T06:28:14.205Z,101962.84
2018-02-05T06:30:41.874Z,101965.40
2018-02-05T06:33:09.583Z,101966.71
2018-02-05T06:35:37.251Z,101970.50
2018-02-05T06:38:04.913Z,101969.94
2018-02-05T06:40:32.623Z,101969.52
2018-02-05T06:43:00.294Z,101966.63
2018-02-05T06:45:27.993Z,101968.11
2018-02-05T06:47:55.658Z,101970.66
2018-02-05T06:50:35.152Z,101970.36
2018-02-05T06:53:14.456Z,101969.26
2018-02-05T06:55:47.956Z,101969.52
2018-02-05T06:58:15.694Z,101978.81
2018-02-05T07:00:43.357Z,101973.55
2018-02-05T07:03:11.067Z,101971.16
2018-02-05T07:05:38.737Z,101976.85
2018-02-05T07:08:06.425Z,101979.07
2018-02-05T07:10:34.102Z,101979.41
2018-02-05T07:13:01.873Z,101981.80
2018-02-05T07:15:29.563Z,101981.28
2018-02-05T07:17:57.266Z,101986.55
2018-02-05T07:20:24.970Z,101984.98
2018-02-05T07:22:52.686Z,101986.64
2018-02-05T07:25:20.374Z,101986.13
2018-02-05T07:27:48.066Z,101988.21
2018-02-05T07:30:15.763Z,101984.59
2018-02-05T07:32:43.422Z,101986.73
2018-02-05T07:35:11.115Z,101982.52
2018-02-05T07:37:38.773Z,101980.90
2018-02-05T07:40:06.526Z,101985.48
2018-02-05T07:42:34.222Z,101984.59
2018-02-05T07:45:01.905Z,101985.86
2018-02-05T07:47:29.569Z,101987.84
2018-02-05T07:49:57.282Z,101987.41
2018-02-05T07:52:24.949Z,101984.95
2018-02-05T07:54:52.641Z,101985.45
2018-02-05T07:57:20.326Z,101984.96
2018-02-05T07:59:48.017Z,101989.81
2018-02-05T08:02:15.673Z,101985.86
2018-02-05T08:04:43.363Z,101991.28
2018-02-05T08:07:11.042Z,101990.23
2018-02-05T08:09:38.718Z,101993.45
2018-02-05T08:12:06.393Z,101991.91
2018-02-05T08:14:34.144Z,101992.49
2018-02-05T08:17:01.810Z,101994.97
2018-02-05T08:19:29.596Z,101994.88
2018-02-05T08:21:57.264Z,101996.84
2018-02-05T08:24:25.025Z,102000.96
2018-02-05T08:26:52.688Z,102001.30
2018-02-05T08:29:20.377Z,102003.36
2018-02-05T08:31:48.051Z,102006.72
2018-02-05T08:34:15.742Z,102002.60
2018-02-05T08:36:43.403Z,102002.20
2018-02-05T08:39:11.118Z,101990.63
2018-02-05T08:41:38.772Z,101991.62
2018-02-05T08:44:06.476Z,101993.02
2018-02-05T08:46:34.145Z,101990.67
2018-02-05T08:49:01.954Z,101996.10
2018-02-05T08:51:29.678Z,101996.77
2018-02-05T08:53:57.309Z,101990.18
2018-02-05T08:56:25.021Z,101985.54
2018-02-05T08:58:52.738Z,101986.36
2018-02-05T09:01:20.403Z,101981.60
2018-02-05T09:03:48.089Z,101982.73
2018-02-05T09:06:15.895Z,101978.72
2018-02-05T09:08:43.680Z,101975.75
2018-02-05T09:11:11.388Z,101978.86
2018-02-05T09:13:39.077Z,101980.94
2018-02-05T09:16:06.747Z,101974.81
2018-02-05T09:18:34.457Z,101971.59
2018-02-05T09:21:02.109Z,101971.39
2018-02-05T09:23:29.807Z,101971.70
2018-02-05T09:25:57.461Z,101968.86
2018-02-05T09:28:25.161Z,101972.41
2018-02-05T09:30:52.817Z,101973.70
2018-02-05T09:33:20.525Z,101970.50
2018-02-05T09:35:48.187Z,101977.73
2018-02-05T09:38:15.888Z,101973.61
2018-02-05T09:40:43.544Z,101978.66
2018-02-05T09:43:11.269Z,101971.05
2018-02-05T09:45:38.921Z,101972.73
2018-02-05T09:48:06.620Z,101966.72
2018-02-05T09:50:34.273Z,101964.11
2018-02-05T09:53:02.026Z,101961.84
2018-02-05T09:55:29.710Z,101957.06
2018-02-05T09:57:57.402Z,101955.90
2018-02-05T10:00:25.071Z,101960.98
2018-02-05T10:02:52.782Z,101958.64
2018-02-05T10:05:20.452Z,101960.22
2018-02-05T10:07:48.137Z,101957.06
2018-02-05T10:10:15.810Z,101957.39
2018-02-05T10:12:43.425Z,101952.53
2018-02-05T10:15:11.081Z,101948.58
2018-02-05T10:17:38.781Z,101951.35
2018-02-05T10:20:06.361Z,101955.35
2018-02-05T10:22:33.986Z,101955.55
2018-02-05T10:25:01.615Z,101938.92
2018-02-05T10:27:29.325Z,101949.05
2018-02-05T10:29:56.921Z,101938.89
2018-02-05T10:32:24.540Z,101932.85
2018-02-05T10:34:52.249Z,101936.18
2018-02-05T10:37:19.861Z,101927.84
2018-02-05T10:39:47.442Z,101931.60
2018-02-05T10:42:15.078Z,101927.42
2018-02-05T10:44:42.760Z,101927.77
2018-02-05T10:47:10.322Z,101916.90
2018-02-05T10:49:37.918Z,101918.39
2018-02-05T10:52:05.521Z,101918.51
2018-02-05T10:54:34.725Z,101916.08
2018-02-05T10:57:02.330Z,101910.87
2018-02-05T10:59:29.916Z,101912.52
2018-02-05T11:01:57.552Z,101905.56
2018-02-05T11:04:25.156Z,101900.16
2018-02-05T11:06:52.790Z,101898.70
2018-02-05T11:09:20.379Z,101894.30
2018-02-05T11:11:48.049Z,101898.50
2018-02-05T11:14:15.635Z,101895.63
2018-02-05T11:16:43.257Z,101887.28
2018-02-05T11:19:10.845Z,101888.56
2018-02-05T11:21:38.463Z,101889.38
2018-02-05T11:24:06.038Z,101890.85
2018-02-05T11:26:33.658Z,101887.22
2018-02-05T11:29:01.287Z,101888.64
2018-02-05T11:31:28.913Z,101894.70
2018-02-05T11:33:56.535Z,101894.72
2018-02-05T11:36:24.146Z,101879.23
2018-02-05T11:38:51.750Z,101890.27
2018-02-05T11:41:19.357Z,101881.73
2018-02-05T11:43:46.992Z,101885.00
2018-02-05T11:46:14.550Z,101882.82
2018-02-05T11:48:42.200Z,101874.66
2018-02-05T11:51:09.828Z,101875.92
2018-02-05T11:53:37.438Z,101874.70
2018-02-05T11:56:05.041Z,101867.91
2018-02-05T11:58:32.622Z,101874.87
2018-02-05T12:01:00.318Z,101874.61
2018-02-05T12:03:27.915Z,101866.30
2018-02-05T12:05:55.530Z,101864.45
2018-02-05T12:08:23.116Z,101862.22
2018-02-05T12:10:50.722Z,101860.27
2018-02-05T12:13:18.318Z,101854.06
2018-02-05T12:15:45.981Z,101853.45
2018-02-05T12:18:13.652Z,101853.58
2018-02-05T12:20:41.937Z,101851.22
2018-02-05T12:23:09.532Z,101842.95
2018-02-05T12:25:37.138Z,101841.14
2018-02-05T12:28:04.717Z,101844.94
2018-02-05T12:30:32.389Z,101837.54
2018-02-05T12:32:59.980Z,101832.82
2018-02-05T12:35:27.698Z,101836.19
2018-02-05T12:37:55.246Z,101829.94
2018-02-05T12:40:22.872Z,101830.50
2018-02-05T12:42:50.454Z,101826.56
2018-02-05T12:45:18.114Z,101819.47
2018-02-05T12:47:45.701Z,101814.79
2018-02-05T12:50:13.295Z,101813.94
2018-02-05T12:52:40.909Z,101812.38
2018-02-05T12:55:08.521Z,101808.24
2018-02-05T12:57:36.130Z,101810.48
2018-02-05T13:00:17.553Z,101810.36
2018-02-05T13:02:45.798Z,101801.83
2018-02-05T13:08:26.715Z,101792.86
2018-02-05T13:10:54.423Z,101787.83
2018-02-05T13:13:22.150Z,101782.70
2018-02-05T13:15:49.992Z,101784.23
2018-02-05T13:18:17.889Z,101784.62
2018-02-05T13:20:45.577Z,101784.19
2018-02-05T13:23:13.247Z,101787.62
2018-02-05T13:25:40.987Z,101773.67
2018-02-05T13:28:08.601Z,101778.73
2018-02-05T13:30:36.282Z,101783.58
2018-02-05T13:33:03.882Z,101774.20
2018-02-05T13:35:31.509Z,101767.92
2018-02-05T13:37:59.166Z,101754.52
2018-02-05T13:40:26.802Z,101753.56
2018-02-05T13:42:54.414Z,101758.39
2018-02-05T13:45:22.061Z,101754.83
2018-02-05T13:47:49.687Z,101758.70
2018-02-05T13:50:17.313Z,101756.73
2018-02-05T13:52:44.917Z,101759.55
2018-02-05T13:55:12.573Z,101749.22
2018-02-05T13:57:40.164Z,101749.98
2018-02-05T14:00:07.802Z,101735.32
2018-02-05T14:02:35.542Z,101728.97
2018-02-05T14:05:03.189Z,101725.64
2018-02-05T14:07:30.786Z,101735.78
2018-02-05T14:09:58.570Z,101730.77
2018-02-05T14:12:26.154Z,101731.30
2018-02-05T14:14:53.814Z,101730.22
2018-02-05T14:17:21.452Z,101727.91
2018-02-05T14:19:49.224Z,101718.13
2018-02-05T14:22:16.894Z,101725.04
2018-02-05T14:24:44.537Z,101718.89
2018-02-05T14:27:12.163Z,101710.33
2018-02-05T14:29:39.802Z,101718.66
2018-02-05T14:32:07.401Z,101721.80
2018-02-05T14:34:35.030Z,101715.75
2018-02-05T14:37:02.782Z,101710.88
2018-02-05T14:39:30.431Z,101713.61
2018-02-05T14:41:58.042Z,101718.71
2018-02-05T14:44:25.672Z,101711.06
2018-02-05T14:46:53.293Z,101704.95
2018-02-05T14:49:20.951Z,101715.61
2018-02-05T14:51:48.570Z,101714.47
2018-02-05T14:54:16.225Z,101709.74
2018-02-05T14:56:43.827Z,101704.73
2018-02-05T14:59:11.579Z,101706.50
2018-02-05T15:01:39.154Z,101696.23
2018-02-05T15:04:06.867Z,101694.34
2018-02-05T15:06:34.594Z,101687.55
2018-02-05T15:09:02.270Z,101689.90
2018-02-05T15:11:29.923Z,101688.09
2018-02-05T15:13:57.623Z,101690.73
2018-02-05T15:16:25.203Z,101690.67
2018-02-05T15:18:52.829Z,101686.19
2018-02-05T15:21:20.451Z,101680.44
2018-02-05T15:23:48.052Z,101673.19
2018-02-05T15:26:15.723Z,101667.23
2018-02-05T15:28:43.326Z,101669.55
2018-02-05T15:31:10.957Z,101671.03
2018-02-05T15:33:38.554Z,101674.32
2018-02-05T15:36:06.172Z,101662.48
2018-02-05T15:38:33.847Z,101664.39
2018-02-05T15:41:01.515Z,101663.38
2018-02-05T15:43:29.265Z,101664.59
2018-02-05T15:45:56.895Z,101658.69
2018-02-05T15:48:24.531Z,101657.48
2018-02-05T15:50:52.165Z,101656.05
2018-02-05T15:53:19.812Z,101665.44
2018-02-05T15:55:47.450Z,101665.30
2018-02-05T15:58:15.132Z,101664.15
2018-02-05T16:00:42.958Z,101658.32
2018-02-05T16:03:10.550Z,101663.17
2018-02-05T16:05:38.178Z,101661.90
2018-02-05T16:08:05.795Z,101663.92
2018-02-05T16:10:33.514Z,101656.90
2018-02-05T16:13:01.114Z,101652.05
2018-02-05T16:15:28.830Z,101653.20
2018-02-05T16:17:56.422Z,101653.21
2018-02-05T16:20:24.042Z,101650.99
2018-02-05T16:22:51.667Z,101648.88
2018-02-05T16:25:19.281Z,101648.71
2018-02-05T16:27:46.890Z,101652.69
2018-02-05T16:30:14.531Z,101653.11
2018-02-05T16:32:42.125Z,101659.72
2018-02-05T16:35:09.860Z,101655.96
2018-02-05T16:37:37.533Z,101654.52
2018-02-05T16:40:05.217Z,101654.49
2018-02-05T16:42:32.926Z,101660.13
2018-02-05T16:45:00.642Z,101661.85
2018-02-05T16:47:28.357Z,101662.45
2018-02-05T16:49:56.075Z,101666.14
2018-02-05T16:52:23.788Z,101666.14
2018-02-05T16:54:51.490Z,101666.12
2018-02-05T16:57:19.213Z,101667.31
2018-02-05T16:59:46.925Z,101666.83
2018-02-05T17:02:14.621Z,101670.48
2018-02-05T17:04:42.337Z,101671.09
2018-02-05T17:07:09.945Z,101663.93
2018-02-05T17:09:37.834Z,101657.77
2018-02-05T17:12:05.547Z,101655.34
2018-02-05T17:14:33.322Z,101662.27
2018-02-05T17:17:01.023Z,101667.45
2018-02-05T17:19:28.710Z,101666.98
2018-02-05T17:21:56.375Z,101665.56
2018-02-05T17:24:24.166Z,101668.16
2018-02-05T17:26:51.821Z,101674.58
2018-02-05T17:29:19.622Z,101674.16
2018-02-05T17:31:47.282Z,101672.08
2018-02-05T17:34:14.954Z,101675.27
2018-02-05T17:36:42.631Z,101674.34
2018-02-05T17:39:10.203Z,101673.35
2018-02-05T17:41:37.932Z,101672.09
2018-02-05T17:44:05.657Z,101673.61
2018-02-05T17:46:33.253Z,101673.00
2018-02-05T17:49:00.958Z,101667.06
2018-02-05T17:51:28.553Z,101673.16
2018-02-05T17:53:56.181Z,101678.80
2018-02-05T17:56:23.845Z,101670.47
2018-02-05T17:58:51.534Z,101671.20
2018-02-05T18:01:19.177Z,101672.08
2018-02-05T18:03:46.772Z,101669.19
2018-02-05T18:06:14.414Z,101670.13
2018-02-05T18:08:42.041Z,101673.22
2018-02-05T18:11:09.662Z,101661.58
2018-02-05T18:13:37.267Z,101657.99
2018-02-05T18:16:04.914Z,101662.73
2018-02-05T18:18:32.542Z,101661.96
2018-02-05T18:21:00.146Z,101659.64
2018-02-05T18:23:27.779Z,101659.77
2018-02-05T18:25:55.384Z,101652.85
2018-02-05T18:28:23.006Z,101649.83
2018-02-05T18:30:50.603Z,101656.86
2018-02-05T18:33:18.409Z,101650.98
2018-02-05T18:35:46.092Z,101658.63
2018-02-05T18:38:13.693Z,101650.56
2018-02-05T18:40:41.347Z,101652.47
2018-02-05T18:43:08.967Z,101651.48
2018-02-05T18:45:36.656Z,101647.16
2018-02-05T18:48:04.260Z,101637.89
2018-02-05T18:50:31.874Z,101642.66
2018-02-05T18:52:59.503Z,101643.91
2018-02-05T18:55:27.216Z,101646.55
2018-02-05T18:57:54.844Z,101644.25
2018-02-05T19:00:34.245Z,101643.83
2018-02-05T19:03:01.854Z,101643.78
2018-02-05T19:05:29.619Z,101640.84
2018-02-05T19:07:57.298Z,101634.85
2018-02-05T19:10:24.938Z,101632.85
2018-02-05T19:12:52.614Z,101632.72
2018-02-05T19:15:20.341Z,101634.39
2018-02-05T19:17:48.030Z,101632.88
2018-02-05T19:20:15.743Z,101631.70
2018-02-05T19:22:43.441Z,101637.53
2018-02-05T19:25:11.136Z,101631.39
2018-02-05T19:27:38.829Z,101627.84
2018-02-05T19:30:06.570Z,101617.16
2018-02-05T19:32:34.297Z,101622.38
2018-02-05T19:35:02.018Z,101627.36
2018-02-05T19:37:29.694Z,101628.39
2018-02-05T19:39:57.390Z,101627.02
2018-02-05T19:42:25.082Z,101628.75
2018-02-05T19:44:52.829Z,101630.59
2018-02-05T19:47:20.573Z,101621.02
2018-02-05T19:49:48.272Z,101625.52
2018-02-05T19:52:15.982Z,101621.17
2018-02-05T19:54:43.681Z,101630.16
2018-02-05T19:57:11.399Z,101629.72
2018-02-05T19:59:39.143Z,101630.42
2018-02-05T20:02:06.908Z,101625.67
2018-02-05T20:04:34.691Z,101619.50
2018-02-05T20:07:02.392Z,101618.72
2018-02-05T20:09:30.162Z,101617.20
2018-02-05T20:11:57.838Z,101618.56
2018-02-05T20:14:25.601Z,101612.47
2018-02-05T20:16:53.294Z,101610.97
2018-02-05T20:19:21.062Z,101602.39
2018-02-05T20:21:48.765Z,101606.78
2018-02-05T20:24:16.518Z,101610.58
2018-02-05T20:26:44.186Z,101612.36
2018-02-05T20:29:11.953Z,101607.78
2018-02-05T20:31:39.701Z,101619.61
2018-02-05T20:34:07.433Z,101615.45
2018-02-05T20:36:35.106Z,101613.79
2018-02-05T20:39:02.849Z,101610.80
2018-02-05T20:41:30.553Z,101607.83
2018-02-05T20:43:58.282Z,101611.20
2018-02-05T20:46:26.144Z,101616.63
2018-02-05T20:48:53.833Z,101615.31
2018-02-05T20:51:21.533Z,101621.36
2018-02-05T20:53:49.275Z,101630.49
2018-02-05T20:56:17.043Z,101631.13
2018-02-05T20:58:44.783Z,101632.61
2018-02-05T21:01:12.472Z,101633.93
2018-02-05T21:03:40.193Z,101631.30
2018-02-05T21:06:07.887Z,101626.30
2018-02-05T21:08:35.619Z,101626.66
2018-02-05T21:11:03.320Z,101625.28
2018-02-05T21:13:31.111Z,101625.73
2018-02-05T21:15:58.805Z,101620.61
2018-02-05T21:18:26.547Z,101622.38
2018-02-05T21:20:54.222Z,101620.47
2018-02-05T21:23:21.943Z,101623.61
2018-02-05T21:25:49.701Z,101621.06
2018-02-05T21:28:17.408Z,101617.38
2018-02-05T21:30:45.094Z,101616.47
2018-02-05T21:33:12.793Z,101608.42
2018-02-05T21:35:40.509Z,101611.03
2018-02-05T21:38:08.229Z,101604.89
2018-02-05T21:40:35.914Z,101609.46
2018-02-05T21:43:03.666Z,101608.05
2018-02-05T21:45:31.407Z,101598.30
2018-02-05T21:47:59.116Z,101597.19
2018-02-05T21:50:26.850Z,101593.18
2018-02-05T21:52:54.593Z,101596.29
2018-02-05T21:55:22.331Z,101590.03
2018-02-05T21:57:50.026Z,101585.03
2018-02-05T22:00:17.765Z,101589.88
2018-02-05T22:02:45.434Z,101579.16
2018-02-05T22:05:13.135Z,101576.17
2018-02-05T22:07:40.745Z,101570.09
2018-02-05T22:10:08.463Z,101562.45
2018-02-05T22:12:36.221Z,101558.36
2018-02-05T22:15:03.918Z,101561.28
2018-02-05T22:17:31.582Z,101547.12
2018-02-05T22:19:59.295Z,101549.02
2018-02-05T22:22:27.042Z,101545.48
2018-02-05T22:24:54.742Z,101538.27
2018-02-05T22:27:22.422Z,101527.64
2018-02-05T22:29:50.144Z,101525.88
2018-02-05T22:32:17.833Z,101520.36
2018-02-05T22:34:45.536Z,101520.01
2018-02-05T22:37:13.202Z,101518.69
2018-02-05T22:39:40.982Z,101515.73
2018-02-05T22:42:08.649Z,101517.27
2018-02-05T22:44:36.362Z,101504.92
2018-02-05T22:47:04.078Z,101499.92
2018-02-05T22:49:31.776Z,101498.66
2018-02-05T22:51:59.450Z,101501.28
2018-02-05T22:54:27.178Z,101497.78
2018-02-05T22:56:54.957Z,101493.12
2018-02-05T22:59:22.754Z,101489.80
2018-02-05T23:01:50.584Z,101487.91
2018-02-05T23:04:18.277Z,101480.24
2018-02-05T23:06:45.957Z,101477.70
2018-02-05T23:09:13.667Z,101475.34
2018-02-05T23:11:41.349Z,101479.99
2018-02-05T23:14:09.066Z,101474.81
2018-02-05T23:16:36.726Z,101468.98
2018-02-05T23:19:04.424Z,101465.88
2018-02-05T23:21:32.103Z,101461.81
2018-02-05T23:23:59.862Z,101461.10
2018-02-05T23:26:27.558Z,101455.88
2018-02-05T23:28:55.281Z,101449.07
2018-02-05T23:31:23.015Z,101449.44
2018-02-05T23:33:50.745Z,101445.77
2018-02-05T23:36:18.438Z,101440.97
2018-02-05T23:38:46.163Z,101439.99
2018-02-05T23:41:13.826Z,101428.66
2018-02-05T23:43:41.531Z,101426.59
2018-02-05T23:46:09.203Z,101421.14
2018-02-05T23:48:36.946Z,101424.84
2018-02-05T23:51:04.641Z,101416.05
2018-02-05T23:53:32.325Z,101414.34
2018-02-05T23:56:00.030Z,101411.57
2018-02-05T23:58:27.722Z,101411.02
